sensor_id;sensor_type;location;lat;lon;timestamp;P1;durP1;ratioP1;P2;durP2;ratioP2
26407;SDS011;14583;43.604;1.364;2024-03-29T00:00:42;8.77;;;1.80;;
26407;SDS011;14583;43.604;1.364;2024-03-29T00:03:09;9.40;;;2.25;;
26407;SDS011;14583;43.604;1.364;2024-03-29T00:05:35;9.23;;;2.33;;
26407;SDS011;14583;43.604;1.364;2024-03-29T00:08:05;7.65;;;1.85;;
26407;SDS011;14583;43.604;1.364;2024-03-29T00:10:31;6.35;;;1.92;;
26407;SDS011;14583;43.604;1.364;2024-03-29T00:12:56;8.63;;;1.95;;
26407;SDS011;14583;43.604;1.364;2024-03-29T00:15:22;6.30;;;2.30;;
26407;SDS011;14583;43.604;1.364;2024-03-29T00:17:48;13.00;;;2.40;;
26407;SDS011;14583;43.604;1.364;2024-03-29T00:20:14;9.48;;;1.92;;
26407;SDS011;14583;43.604;1.364;2024-03-29T00:22:40;12.70;;;2.20;;
26407;SDS011;14583;43.604;1.364;2024-03-29T00:25:06;6.15;;;1.80;;
26407;SDS011;14583;43.604;1.364;2024-03-29T00:27:31;9.57;;;1.75;;
26407;SDS011;14583;43.604;1.364;2024-03-29T00:29:57;6.70;;;1.90;;
26407;SDS011;14583;43.604;1.364;2024-03-29T00:32:25;5.93;;;1.63;;
26407;SDS011;14583;43.604;1.364;2024-03-29T00:34:51;9.00;;;1.95;;
26407;SDS011;14583;43.604;1.364;2024-03-29T00:37:19;8.57;;;2.03;;
26407;SDS011;14583;43.604;1.364;2024-03-29T00:39:45;9.48;;;2.28;;
26407;SDS011;14583;43.604;1.364;2024-03-29T00:42:10;7.65;;;2.10;;
26407;SDS011;14583;43.604;1.364;2024-03-29T00:44:40;4.45;;;1.50;;
26407;SDS011;14583;43.604;1.364;2024-03-29T00:47:07;6.70;;;2.15;;
26407;SDS011;14583;43.604;1.364;2024-03-29T00:49:33;6.47;;;1.80;;
26407;SDS011;14583;43.604;1.364;2024-03-29T00:51:59;11.15;;;3.90;;
26407;SDS011;14583;43.604;1.364;2024-03-29T00:54:25;8.85;;;2.13;;
26407;SDS011;14583;43.604;1.364;2024-03-29T00:56:51;10.13;;;2.42;;
26407;SDS011;14583;43.604;1.364;2024-03-29T00:59:17;8.48;;;1.80;;
26407;SDS011;14583;43.604;1.364;2024-03-29T01:01:43;7.57;;;1.92;;
26407;SDS011;14583;43.604;1.364;2024-03-29T01:04:09;12.15;;;2.50;;
26407;SDS011;14583;43.604;1.364;2024-03-29T01:06:35;12.10;;;2.05;;
26407;SDS011;14583;43.604;1.364;2024-03-29T01:09:01;8.02;;;2.22;;
26407;SDS011;14583;43.604;1.364;2024-03-29T01:11:28;11.43;;;2.28;;
26407;SDS011;14583;43.604;1.364;2024-03-29T01:13:54;9.25;;;1.95;;
26407;SDS011;14583;43.604;1.364;2024-03-29T01:16:20;9.93;;;2.10;;
26407;SDS011;14583;43.604;1.364;2024-03-29T01:18:45;8.60;;;2.03;;
26407;SDS011;14583;43.604;1.364;2024-03-29T01:21:12;9.77;;;2.30;;
26407;SDS011;14583;43.604;1.364;2024-03-29T01:23:38;8.63;;;2.10;;
26407;SDS011;14583;43.604;1.364;2024-03-29T01:26:04;9.93;;;2.30;;
26407;SDS011;14583;43.604;1.364;2024-03-29T01:28:31;10.40;;;2.58;;
26407;SDS011;14583;43.604;1.364;2024-03-29T01:30:57;5.88;;;1.80;;
26407;SDS011;14583;43.604;1.364;2024-03-29T01:33:23;7.85;;;2.47;;
26407;SDS011;14583;43.604;1.364;2024-03-29T01:35:49;8.07;;;2.03;;
26407;SDS011;14583;43.604;1.364;2024-03-29T01:38:15;8.02;;;2.15;;
26407;SDS011;14583;43.604;1.364;2024-03-29T01:40:41;8.73;;;2.22;;
26407;SDS011;14583;43.604;1.364;2024-03-29T01:43:06;10.88;;;2.78;;
26407;SDS011;14583;43.604;1.364;2024-03-29T01:45:38;10.45;;;2.33;;
26407;SDS011;14583;43.604;1.364;2024-03-29T01:48:08;12.57;;;2.33;;
26407;SDS011;14583;43.604;1.364;2024-03-29T01:50:34;11.38;;;2.22;;
26407;SDS011;14583;43.604;1.364;2024-03-29T01:53:01;16.35;;;2.80;;
26407;SDS011;14583;43.604;1.364;2024-03-29T01:55:27;8.77;;;2.30;;
26407;SDS011;14583;43.604;1.364;2024-03-29T01:57:53;9.05;;;2.20;;
26407;SDS011;14583;43.604;1.364;2024-03-29T02:00:20;9.50;;;2.63;;
26407;SDS011;14583;43.604;1.364;2024-03-29T02:02:46;10.90;;;2.60;;
26407;SDS011;14583;43.604;1.364;2024-03-29T02:05:12;9.95;;;2.50;;
26407;SDS011;14583;43.604;1.364;2024-03-29T02:07:39;13.43;;;3.00;;
26407;SDS011;14583;43.604;1.364;2024-03-29T02:10:05;9.90;;;2.42;;
26407;SDS011;14583;43.604;1.364;2024-03-29T02:12:33;10.25;;;2.97;;
26407;SDS011;14583;43.604;1.364;2024-03-29T02:14:59;16.23;;;2.72;;
26407;SDS011;14583;43.604;1.364;2024-03-29T02:17:27;13.90;;;2.80;;
26407;SDS011;14583;43.604;1.364;2024-03-29T02:19:53;12.85;;;2.75;;
26407;SDS011;14583;43.604;1.364;2024-03-29T02:22:18;15.70;;;3.17;;
26407;SDS011;14583;43.604;1.364;2024-03-29T02:24:46;12.00;;;2.78;;
26407;SDS011;14583;43.604;1.364;2024-03-29T02:27:13;14.38;;;2.90;;
26407;SDS011;14583;43.604;1.364;2024-03-29T02:29:39;13.50;;;2.83;;
26407;SDS011;14583;43.604;1.364;2024-03-29T02:32:04;13.05;;;2.88;;
26407;SDS011;14583;43.604;1.364;2024-03-29T02:34:30;10.85;;;2.33;;
26407;SDS011;14583;43.604;1.364;2024-03-29T02:36:56;11.35;;;2.53;;
26407;SDS011;14583;43.604;1.364;2024-03-29T02:39:22;16.73;;;3.15;;
26407;SDS011;14583;43.604;1.364;2024-03-29T02:41:48;14.02;;;2.85;;
26407;SDS011;14583;43.604;1.364;2024-03-29T02:44:13;15.43;;;2.67;;
26407;SDS011;14583;43.604;1.364;2024-03-29T02:46:41;12.43;;;3.00;;
26407;SDS011;14583;43.604;1.364;2024-03-29T02:49:07;17.15;;;3.30;;
26407;SDS011;14583;43.604;1.364;2024-03-29T02:51:33;13.07;;;3.40;;
26407;SDS011;14583;43.604;1.364;2024-03-29T02:53:58;19.17;;;3.67;;
26407;SDS011;14583;43.604;1.364;2024-03-29T02:56:24;19.10;;;3.58;;
26407;SDS011;14583;43.604;1.364;2024-03-29T02:58:49;14.43;;;3.50;;
26407;SDS011;14583;43.604;1.364;2024-03-29T03:01:15;12.07;;;2.80;;
26407;SDS011;14583;43.604;1.364;2024-03-29T03:03:41;12.57;;;2.75;;
26407;SDS011;14583;43.604;1.364;2024-03-29T03:06:06;12.95;;;2.65;;
26407;SDS011;14583;43.604;1.364;2024-03-29T03:08:32;9.65;;;3.13;;
26407;SDS011;14583;43.604;1.364;2024-03-29T03:11:16;10.10;;;2.58;;
26407;SDS011;14583;43.604;1.364;2024-03-29T03:13:42;13.07;;;2.55;;
26407;SDS011;14583;43.604;1.364;2024-03-29T03:16:08;12.20;;;2.33;;
26407;SDS011;14583;43.604;1.364;2024-03-29T03:18:33;9.90;;;2.78;;
26407;SDS011;14583;43.604;1.364;2024-03-29T03:20:59;11.77;;;3.30;;
26407;SDS011;14583;43.604;1.364;2024-03-29T03:23:25;11.68;;;3.30;;
26407;SDS011;14583;43.604;1.364;2024-03-29T03:25:57;14.63;;;2.75;;
26407;SDS011;14583;43.604;1.364;2024-03-29T03:28:24;8.13;;;2.40;;
26407;SDS011;14583;43.604;1.364;2024-03-29T03:30:51;9.07;;;3.15;;
26407;SDS011;14583;43.604;1.364;2024-03-29T03:33:18;9.93;;;2.35;;
26407;SDS011;14583;43.604;1.364;2024-03-29T03:35:44;10.00;;;2.70;;
26407;SDS011;14583;43.604;1.364;2024-03-29T03:38:10;9.30;;;2.38;;
26407;SDS011;14583;43.604;1.364;2024-03-29T03:40:36;12.80;;;2.80;;
26407;SDS011;14583;43.604;1.364;2024-03-29T03:43:02;12.43;;;2.75;;
26407;SDS011;14583;43.604;1.364;2024-03-29T03:45:33;11.52;;;2.78;;
26407;SDS011;14583;43.604;1.364;2024-03-29T03:47:59;12.77;;;2.85;;
26407;SDS011;14583;43.604;1.364;2024-03-29T03:50:25;13.00;;;3.20;;
26407;SDS011;14583;43.604;1.364;2024-03-29T03:52:51;9.00;;;2.63;;
26407;SDS011;14583;43.604;1.364;2024-03-29T03:55:16;14.25;;;3.40;;
26407;SDS011;14583;43.604;1.364;2024-03-29T03:57:42;12.68;;;3.70;;
26407;SDS011;14583;43.604;1.364;2024-03-29T04:00:08;14.10;;;3.42;;
26407;SDS011;14583;43.604;1.364;2024-03-29T04:02:34;11.98;;;3.35;;
26407;SDS011;14583;43.604;1.364;2024-03-29T04:04:59;12.45;;;3.13;;
26407;SDS011;14583;43.604;1.364;2024-03-29T04:07:25;16.38;;;3.35;;
26407;SDS011;14583;43.604;1.364;2024-03-29T04:09:51;20.73;;;3.50;;
26407;SDS011;14583;43.604;1.364;2024-03-29T04:12:17;15.50;;;3.00;;
26407;SDS011;14583;43.604;1.364;2024-03-29T04:14:42;20.02;;;3.97;;
26407;SDS011;14583;43.604;1.364;2024-03-29T04:17:08;14.40;;;3.90;;
26407;SDS011;14583;43.604;1.364;2024-03-29T04:19:34;14.07;;;3.17;;
26407;SDS011;14583;43.604;1.364;2024-03-29T04:21:59;15.45;;;3.13;;
26407;SDS011;14583;43.604;1.364;2024-03-29T04:24:25;10.35;;;3.05;;
26407;SDS011;14583;43.604;1.364;2024-03-29T04:26:52;17.63;;;3.28;;
26407;SDS011;14583;43.604;1.364;2024-03-29T04:29:18;9.60;;;2.80;;
26407;SDS011;14583;43.604;1.364;2024-03-29T04:31:47;15.73;;;2.90;;
26407;SDS011;14583;43.604;1.364;2024-03-29T04:34:12;12.98;;;3.33;;
26407;SDS011;14583;43.604;1.364;2024-03-29T04:36:38;8.98;;;2.72;;
26407;SDS011;14583;43.604;1.364;2024-03-29T04:39:04;10.50;;;2.97;;
26407;SDS011;14583;43.604;1.364;2024-03-29T04:41:30;12.38;;;2.47;;
26407;SDS011;14583;43.604;1.364;2024-03-29T04:43:59;12.80;;;2.65;;
26407;SDS011;14583;43.604;1.364;2024-03-29T04:46:26;13.60;;;3.22;;
26407;SDS011;14583;43.604;1.364;2024-03-29T04:48:54;13.57;;;2.75;;
26407;SDS011;14583;43.604;1.364;2024-03-29T04:51:20;8.35;;;2.00;;
26407;SDS011;14583;43.604;1.364;2024-03-29T04:53:46;10.48;;;2.85;;
26407;SDS011;14583;43.604;1.364;2024-03-29T04:56:12;9.45;;;2.90;;
26407;SDS011;14583;43.604;1.364;2024-03-29T04:58:37;20.40;;;4.05;;
26407;SDS011;14583;43.604;1.364;2024-03-29T05:01:03;7.53;;;2.85;;
26407;SDS011;14583;43.604;1.364;2024-03-29T05:03:29;9.98;;;2.60;;
26407;SDS011;14583;43.604;1.364;2024-03-29T05:05:55;13.23;;;2.70;;
26407;SDS011;14583;43.604;1.364;2024-03-29T05:08:21;10.65;;;2.80;;
26407;SDS011;14583;43.604;1.364;2024-03-29T05:10:51;12.10;;;2.88;;
26407;SDS011;14583;43.604;1.364;2024-03-29T05:13:17;9.30;;;3.17;;
26407;SDS011;14583;43.604;1.364;2024-03-29T05:15:49;12.48;;;2.50;;
26407;SDS011;14583;43.604;1.364;2024-03-29T05:18:14;9.80;;;2.70;;
26407;SDS011;14583;43.604;1.364;2024-03-29T05:20:40;14.25;;;2.90;;
26407;SDS011;14583;43.604;1.364;2024-03-29T05:23:11;12.43;;;2.92;;
26407;SDS011;14583;43.604;1.364;2024-03-29T05:25:39;8.10;;;2.53;;
26407;SDS011;14583;43.604;1.364;2024-03-29T05:28:05;12.18;;;2.60;;
26407;SDS011;14583;43.604;1.364;2024-03-29T05:30:35;9.23;;;2.83;;
26407;SDS011;14583;43.604;1.364;2024-03-29T05:36:23;11.68;;;2.72;;
26407;SDS011;14583;43.604;1.364;2024-03-29T05:38:49;10.85;;;2.72;;
26407;SDS011;14583;43.604;1.364;2024-03-29T05:41:15;15.80;;;3.15;;
26407;SDS011;14583;43.604;1.364;2024-03-29T05:46:59;12.70;;;2.80;;
26407;SDS011;14583;43.604;1.364;2024-03-29T05:49:24;10.23;;;2.38;;
26407;SDS011;14583;43.604;1.364;2024-03-29T05:51:50;12.38;;;2.70;;
26407;SDS011;14583;43.604;1.364;2024-03-29T05:54:25;9.43;;;2.80;;
26407;SDS011;14583;43.604;1.364;2024-03-29T05:57:15;9.40;;;2.42;;
26407;SDS011;14583;43.604;1.364;2024-03-29T05:59:41;17.75;;;2.88;;
26407;SDS011;14583;43.604;1.364;2024-03-29T06:04:43;9.57;;;2.42;;
26407;SDS011;14583;43.604;1.364;2024-03-29T06:07:12;9.85;;;2.58;;
26407;SDS011;14583;43.604;1.364;2024-03-29T06:09:38;11.93;;;2.65;;
26407;SDS011;14583;43.604;1.364;2024-03-29T06:12:03;12.45;;;3.35;;
26407;SDS011;14583;43.604;1.364;2024-03-29T06:14:41;8.00;;;2.85;;
26407;SDS011;14583;43.604;1.364;2024-03-29T06:17:34;9.95;;;2.70;;
26407;SDS011;14583;43.604;1.364;2024-03-29T06:20:02;9.65;;;2.92;;
26407;SDS011;14583;43.604;1.364;2024-03-29T06:22:39;8.70;;;2.75;;
26407;SDS011;14583;43.604;1.364;2024-03-29T06:25:27;11.43;;;2.70;;
26407;SDS011;14583;43.604;1.364;2024-03-29T06:27:58;10.15;;;3.22;;
26407;SDS011;14583;43.604;1.364;2024-03-29T06:30:25;11.90;;;3.57;;
26407;SDS011;14583;43.604;1.364;2024-03-29T06:32:50;12.20;;;2.90;;
26407;SDS011;14583;43.604;1.364;2024-03-29T06:35:16;7.90;;;2.50;;
26407;SDS011;14583;43.604;1.364;2024-03-29T06:37:44;9.13;;;2.72;;
26407;SDS011;14583;43.604;1.364;2024-03-29T06:40:10;8.13;;;2.33;;
26407;SDS011;14583;43.604;1.364;2024-03-29T06:42:35;13.05;;;2.85;;
26407;SDS011;14583;43.604;1.364;2024-03-29T06:45:01;9.30;;;2.72;;
26407;SDS011;14583;43.604;1.364;2024-03-29T06:47:27;7.78;;;2.70;;
26407;SDS011;14583;43.604;1.364;2024-03-29T06:49:53;9.38;;;2.70;;
26407;SDS011;14583;43.604;1.364;2024-03-29T06:52:19;10.82;;;2.72;;
26407;SDS011;14583;43.604;1.364;2024-03-29T06:54:44;11.00;;;2.70;;
26407;SDS011;14583;43.604;1.364;2024-03-29T06:57:10;7.82;;;2.45;;
26407;SDS011;14583;43.604;1.364;2024-03-29T06:59:40;13.45;;;2.97;;
26407;SDS011;14583;43.604;1.364;2024-03-29T07:02:07;10.20;;;2.70;;
26407;SDS011;14583;43.604;1.364;2024-03-29T07:04:34;7.00;;;2.38;;
26407;SDS011;14583;43.604;1.364;2024-03-29T07:06:59;8.82;;;2.75;;
26407;SDS011;14583;43.604;1.364;2024-03-29T07:09:25;10.15;;;2.15;;
26407;SDS011;14583;43.604;1.364;2024-03-29T07:11:51;5.82;;;2.10;;
26407;SDS011;14583;43.604;1.364;2024-03-29T07:14:17;11.10;;;2.60;;
26407;SDS011;14583;43.604;1.364;2024-03-29T07:16:44;8.80;;;2.47;;
26407;SDS011;14583;43.604;1.364;2024-03-29T07:19:11;7.55;;;2.15;;
26407;SDS011;14583;43.604;1.364;2024-03-29T07:21:42;9.90;;;2.60;;
26407;SDS011;14583;43.604;1.364;2024-03-29T07:24:08;8.07;;;2.78;;
26407;SDS011;14583;43.604;1.364;2024-03-29T07:26:34;14.68;;;3.50;;
26407;SDS011;14583;43.604;1.364;2024-03-29T07:29:00;9.25;;;2.70;;
26407;SDS011;14583;43.604;1.364;2024-03-29T07:31:26;9.32;;;2.45;;
26407;SDS011;14583;43.604;1.364;2024-03-29T07:33:51;14.07;;;3.45;;
26407;SDS011;14583;43.604;1.364;2024-03-29T07:36:17;10.50;;;2.60;;
26407;SDS011;14583;43.604;1.364;2024-03-29T07:38:43;11.20;;;3.15;;
26407;SDS011;14583;43.604;1.364;2024-03-29T07:41:09;12.35;;;3.05;;
26407;SDS011;14583;43.604;1.364;2024-03-29T07:43:38;10.50;;;2.65;;
26407;SDS011;14583;43.604;1.364;2024-03-29T07:46:24;8.38;;;2.60;;
26407;SDS011;14583;43.604;1.364;2024-03-29T07:48:52;10.13;;;2.60;;
26407;SDS011;14583;43.604;1.364;2024-03-29T07:51:18;8.13;;;2.38;;
26407;SDS011;14583;43.604;1.364;2024-03-29T07:53:44;7.88;;;2.38;;
26407;SDS011;14583;43.604;1.364;2024-03-29T07:56:09;9.23;;;2.33;;
26407;SDS011;14583;43.604;1.364;2024-03-29T07:58:35;6.57;;;2.13;;
26407;SDS011;14583;43.604;1.364;2024-03-29T08:01:01;11.02;;;2.15;;
26407;SDS011;14583;43.604;1.364;2024-03-29T08:03:26;9.93;;;2.50;;
26407;SDS011;14583;43.604;1.364;2024-03-29T08:05:59;10.80;;;2.50;;
26407;SDS011;14583;43.604;1.364;2024-03-29T08:08:27;7.80;;;2.53;;
26407;SDS011;14583;43.604;1.364;2024-03-29T08:10:55;11.98;;;2.75;;
26407;SDS011;14583;43.604;1.364;2024-03-29T08:13:21;10.32;;;3.40;;
26407;SDS011;14583;43.604;1.364;2024-03-29T08:15:48;11.35;;;2.50;;
26407;SDS011;14583;43.604;1.364;2024-03-29T08:18:13;8.85;;;2.88;;
26407;SDS011;14583;43.604;1.364;2024-03-29T08:20:39;9.50;;;3.35;;
26407;SDS011;14583;43.604;1.364;2024-03-29T08:23:05;11.68;;;2.60;;
26407;SDS011;14583;43.604;1.364;2024-03-29T08:25:30;12.85;;;2.67;;
26407;SDS011;14583;43.604;1.364;2024-03-29T08:27:56;11.25;;;2.78;;
26407;SDS011;14583;43.604;1.364;2024-03-29T08:30:25;9.98;;;2.60;;
26407;SDS011;14583;43.604;1.364;2024-03-29T08:32:51;10.43;;;2.30;;
26407;SDS011;14583;43.604;1.364;2024-03-29T08:35:22;13.27;;;3.03;;
26407;SDS011;14583;43.604;1.364;2024-03-29T08:37:47;9.90;;;3.03;;
26407;SDS011;14583;43.604;1.364;2024-03-29T08:40:15;10.90;;;2.67;;
26407;SDS011;14583;43.604;1.364;2024-03-29T08:42:41;10.68;;;2.63;;
26407;SDS011;14583;43.604;1.364;2024-03-29T08:45:06;9.27;;;2.47;;
26407;SDS011;14583;43.604;1.364;2024-03-29T08:47:33;8.10;;;2.50;;
26407;SDS011;14583;43.604;1.364;2024-03-29T08:49:59;12.55;;;2.50;;
26407;SDS011;14583;43.604;1.364;2024-03-29T08:52:25;11.05;;;2.50;;
26407;SDS011;14583;43.604;1.364;2024-03-29T08:54:50;13.85;;;3.10;;
26407;SDS011;14583;43.604;1.364;2024-03-29T08:57:16;9.48;;;2.42;;
26407;SDS011;14583;43.604;1.364;2024-03-29T08:59:41;11.07;;;3.00;;
26407;SDS011;14583;43.604;1.364;2024-03-29T09:02:07;9.57;;;2.50;;
26407;SDS011;14583;43.604;1.364;2024-03-29T09:04:33;10.80;;;2.90;;
26407;SDS011;14583;43.604;1.364;2024-03-29T09:06:59;13.95;;;2.95;;
26407;SDS011;14583;43.604;1.364;2024-03-29T09:09:27;14.10;;;2.78;;
26407;SDS011;14583;43.604;1.364;2024-03-29T09:11:54;14.27;;;2.95;;
26407;SDS011;14583;43.604;1.364;2024-03-29T09:14:20;11.50;;;2.80;;
26407;SDS011;14583;43.604;1.364;2024-03-29T09:16:46;15.52;;;2.92;;
26407;SDS011;14583;43.604;1.364;2024-03-29T09:19:14;9.57;;;2.83;;
26407;SDS011;14583;43.604;1.364;2024-03-29T09:21:40;13.50;;;2.97;;
26407;SDS011;14583;43.604;1.364;2024-03-29T09:24:05;14.88;;;2.63;;
26407;SDS011;14583;43.604;1.364;2024-03-29T09:26:32;14.40;;;3.50;;
26407;SDS011;14583;43.604;1.364;2024-03-29T09:28:58;15.70;;;3.20;;
26407;SDS011;14583;43.604;1.364;2024-03-29T09:31:24;12.73;;;3.15;;
26407;SDS011;14583;43.604;1.364;2024-03-29T09:33:50;19.52;;;4.15;;
26407;SDS011;14583;43.604;1.364;2024-03-29T09:36:22;17.05;;;3.58;;
26407;SDS011;14583;43.604;1.364;2024-03-29T09:38:48;12.73;;;3.33;;
26407;SDS011;14583;43.604;1.364;2024-03-29T09:41:15;17.88;;;3.90;;
26407;SDS011;14583;43.604;1.364;2024-03-29T09:43:44;14.02;;;4.03;;
26407;SDS011;14583;43.604;1.364;2024-03-29T09:46:11;19.52;;;3.47;;
26407;SDS011;14583;43.604;1.364;2024-03-29T09:48:38;17.42;;;3.38;;
26407;SDS011;14583;43.604;1.364;2024-03-29T09:51:10;15.73;;;3.88;;
26407;SDS011;14583;43.604;1.364;2024-03-29T09:53:41;13.88;;;3.47;;
26407;SDS011;14583;43.604;1.364;2024-03-29T09:56:08;18.00;;;3.75;;
26407;SDS011;14583;43.604;1.364;2024-03-29T09:58:35;17.10;;;4.35;;
26407;SDS011;14583;43.604;1.364;2024-03-29T10:01:02;17.42;;;3.97;;
26407;SDS011;14583;43.604;1.364;2024-03-29T10:03:29;18.42;;;4.15;;
26407;SDS011;14583;43.604;1.364;2024-03-29T10:05:59;15.30;;;4.72;;
26407;SDS011;14583;43.604;1.364;2024-03-29T10:08:29;22.13;;;4.38;;
26407;SDS011;14583;43.604;1.364;2024-03-29T10:10:56;17.55;;;4.45;;
26407;SDS011;14583;43.604;1.364;2024-03-29T10:13:22;24.55;;;4.82;;
26407;SDS011;14583;43.604;1.364;2024-03-29T10:15:49;23.92;;;4.57;;
26407;SDS011;14583;43.604;1.364;2024-03-29T10:18:16;25.27;;;5.45;;
26407;SDS011;14583;43.604;1.364;2024-03-29T10:20:44;22.70;;;5.40;;
26407;SDS011;14583;43.604;1.364;2024-03-29T10:23:10;19.15;;;4.25;;
26407;SDS011;14583;43.604;1.364;2024-03-29T10:25:36;22.15;;;5.63;;
26407;SDS011;14583;43.604;1.364;2024-03-29T10:28:01;22.35;;;5.07;;
26407;SDS011;14583;43.604;1.364;2024-03-29T10:30:28;23.27;;;4.43;;
26407;SDS011;14583;43.604;1.364;2024-03-29T10:32:57;21.73;;;5.28;;
26407;SDS011;14583;43.604;1.364;2024-03-29T10:35:26;21.02;;;4.63;;
26407;SDS011;14583;43.604;1.364;2024-03-29T10:37:52;16.88;;;4.50;;
26407;SDS011;14583;43.604;1.364;2024-03-29T10:40:18;19.90;;;5.20;;
26407;SDS011;14583;43.604;1.364;2024-03-29T10:42:46;19.92;;;4.57;;
26407;SDS011;14583;43.604;1.364;2024-03-29T10:45:13;23.05;;;4.50;;
26407;SDS011;14583;43.604;1.364;2024-03-29T10:47:42;18.52;;;3.83;;
26407;SDS011;14583;43.604;1.364;2024-03-29T10:50:10;28.13;;;4.45;;
26407;SDS011;14583;43.604;1.364;2024-03-29T10:52:38;15.30;;;3.95;;
26407;SDS011;14583;43.604;1.364;2024-03-29T10:55:07;19.90;;;4.40;;
26407;SDS011;14583;43.604;1.364;2024-03-29T10:57:34;13.23;;;3.88;;
26407;SDS011;14583;43.604;1.364;2024-03-29T11:00:12;15.70;;;4.13;;
26407;SDS011;14583;43.604;1.364;2024-03-29T11:05:31;20.70;;;4.22;;
26407;SDS011;14583;43.604;1.364;2024-03-29T11:07:59;13.25;;;4.10;;
26407;SDS011;14583;43.604;1.364;2024-03-29T11:15:46;16.23;;;3.78;;
26407;SDS011;14583;43.604;1.364;2024-03-29T11:18:14;18.15;;;3.92;;
26407;SDS011;14583;43.604;1.364;2024-03-29T11:20:43;19.83;;;4.80;;
26407;SDS011;14583;43.604;1.364;2024-03-29T11:23:19;15.18;;;3.38;;
26407;SDS011;14583;43.604;1.364;2024-03-29T11:25:48;13.40;;;3.70;;
26407;SDS011;14583;43.604;1.364;2024-03-29T11:28:22;15.88;;;3.47;;
26407;SDS011;14583;43.604;1.364;2024-03-29T11:30:58;11.85;;;3.30;;
26407;SDS011;14583;43.604;1.364;2024-03-29T11:33:31;15.13;;;3.40;;
26407;SDS011;14583;43.604;1.364;2024-03-29T11:38:52;17.23;;;3.58;;
26407;SDS011;14583;43.604;1.364;2024-03-29T11:41:19;16.45;;;3.72;;
26407;SDS011;14583;43.604;1.364;2024-03-29T11:43:53;22.02;;;3.97;;
26407;SDS011;14583;43.604;1.364;2024-03-29T11:46:19;11.10;;;2.97;;
26407;SDS011;14583;43.604;1.364;2024-03-29T11:48:46;13.10;;;3.20;;
26407;SDS011;14583;43.604;1.364;2024-03-29T11:51:15;17.98;;;4.70;;
26407;SDS011;14583;43.604;1.364;2024-03-29T11:53:43;15.50;;;3.60;;
26407;SDS011;14583;43.604;1.364;2024-03-29T11:56:09;8.98;;;3.25;;
26407;SDS011;14583;43.604;1.364;2024-03-29T11:58:38;13.35;;;3.42;;
26407;SDS011;14583;43.604;1.364;2024-03-29T12:01:05;13.80;;;3.17;;
26407;SDS011;14583;43.604;1.364;2024-03-29T12:03:31;14.20;;;3.25;;
26407;SDS011;14583;43.604;1.364;2024-03-29T12:05:58;12.85;;;3.33;;
26407;SDS011;14583;43.604;1.364;2024-03-29T12:08:31;11.75;;;3.05;;
26407;SDS011;14583;43.604;1.364;2024-03-29T12:11:01;13.23;;;3.40;;
26407;SDS011;14583;43.604;1.364;2024-03-29T12:13:27;12.93;;;3.28;;
26407;SDS011;14583;43.604;1.364;2024-03-29T12:15:54;9.88;;;2.55;;
26407;SDS011;14583;43.604;1.364;2024-03-29T12:18:20;13.90;;;2.80;;
26407;SDS011;14583;43.604;1.364;2024-03-29T12:20:50;12.30;;;2.70;;
26407;SDS011;14583;43.604;1.364;2024-03-29T12:23:17;11.35;;;2.78;;
26407;SDS011;14583;43.604;1.364;2024-03-29T12:25:44;12.68;;;3.05;;
26407;SDS011;14583;43.604;1.364;2024-03-29T12:28:11;11.05;;;2.92;;
26407;SDS011;14583;43.604;1.364;2024-03-29T12:30:40;11.18;;;3.40;;
26407;SDS011;14583;43.604;1.364;2024-03-29T12:33:07;12.52;;;3.22;;
26407;SDS011;14583;43.604;1.364;2024-03-29T12:35:43;17.23;;;3.40;;
26407;SDS011;14583;43.604;1.364;2024-03-29T12:38:13;16.70;;;3.10;;
26407;SDS011;14583;43.604;1.364;2024-03-29T12:40:41;12.30;;;3.38;;
26407;SDS011;14583;43.604;1.364;2024-03-29T12:43:12;10.83;;;3.30;;
26407;SDS011;14583;43.604;1.364;2024-03-29T12:45:40;12.85;;;3.10;;
26407;SDS011;14583;43.604;1.364;2024-03-29T12:50:36;15.05;;;3.83;;
26407;SDS011;14583;43.604;1.364;2024-03-29T12:53:05;12.48;;;3.92;;
26407;SDS011;14583;43.604;1.364;2024-03-29T12:55:31;15.00;;;4.45;;
26407;SDS011;14583;43.604;1.364;2024-03-29T12:58:00;14.93;;;4.85;;
26407;SDS011;14583;43.604;1.364;2024-03-29T13:00:29;11.90;;;3.60;;
26407;SDS011;14583;43.604;1.364;2024-03-29T13:02:55;12.95;;;3.80;;
26407;SDS011;14583;43.604;1.364;2024-03-29T13:05:21;12.40;;;3.67;;
26407;SDS011;14583;43.604;1.364;2024-03-29T13:07:47;16.02;;;3.78;;
26407;SDS011;14583;43.604;1.364;2024-03-29T13:10:13;12.88;;;4.07;;
26407;SDS011;14583;43.604;1.364;2024-03-29T13:12:42;11.68;;;3.60;;
26407;SDS011;14583;43.604;1.364;2024-03-29T13:17:54;11.13;;;3.67;;
26407;SDS011;14583;43.604;1.364;2024-03-29T13:20:21;14.77;;;3.70;;
26407;SDS011;14583;43.604;1.364;2024-03-29T13:22:48;21.00;;;4.30;;
26407;SDS011;14583;43.604;1.364;2024-03-29T13:25:18;18.67;;;3.55;;
26407;SDS011;14583;43.604;1.364;2024-03-29T13:27:45;11.75;;;3.08;;
26407;SDS011;14583;43.604;1.364;2024-03-29T13:30:17;8.77;;;2.38;;
26407;SDS011;14583;43.604;1.364;2024-03-29T13:32:42;8.95;;;2.60;;
26407;SDS011;14583;43.604;1.364;2024-03-29T13:35:09;5.88;;;2.10;;
26407;SDS011;14583;43.604;1.364;2024-03-29T13:37:39;10.30;;;5.30;;
26407;SDS011;14583;43.604;1.364;2024-03-29T13:40:09;12.30;;;2.88;;
26407;SDS011;14583;43.604;1.364;2024-03-29T13:42:36;6.55;;;2.00;;
26407;SDS011;14583;43.604;1.364;2024-03-29T13:45:02;6.38;;;1.70;;
26407;SDS011;14583;43.604;1.364;2024-03-29T13:47:28;7.43;;;1.95;;
26407;SDS011;14583;43.604;1.364;2024-03-29T13:49:54;5.78;;;1.73;;
26407;SDS011;14583;43.604;1.364;2024-03-29T13:52:21;6.72;;;1.80;;
26407;SDS011;14583;43.604;1.364;2024-03-29T13:54:47;5.72;;;1.63;;
26407;SDS011;14583;43.604;1.364;2024-03-29T13:57:16;4.15;;;1.50;;
26407;SDS011;14583;43.604;1.364;2024-03-29T13:59:43;4.65;;;1.35;;
26407;SDS011;14583;43.604;1.364;2024-03-29T14:02:13;4.72;;;1.40;;
26407;SDS011;14583;43.604;1.364;2024-03-29T14:04:43;8.05;;;1.92;;
26407;SDS011;14583;43.604;1.364;2024-03-29T14:07:09;5.35;;;2.15;;
26407;SDS011;14583;43.604;1.364;2024-03-29T14:09:37;5.45;;;2.00;;
26407;SDS011;14583;43.604;1.364;2024-03-29T14:12:04;4.00;;;1.48;;
26407;SDS011;14583;43.604;1.364;2024-03-29T14:14:30;4.85;;;1.38;;
26407;SDS011;14583;43.604;1.364;2024-03-29T14:16:56;3.63;;;1.50;;
26407;SDS011;14583;43.604;1.364;2024-03-29T14:19:22;3.10;;;1.30;;
26407;SDS011;14583;43.604;1.364;2024-03-29T14:21:48;6.43;;;1.30;;
26407;SDS011;14583;43.604;1.364;2024-03-29T14:24:13;4.20;;;1.45;;
26407;SDS011;14583;43.604;1.364;2024-03-29T14:26:40;2.78;;;1.35;;
26407;SDS011;14583;43.604;1.364;2024-03-29T14:29:07;5.55;;;1.35;;
26407;SDS011;14583;43.604;1.364;2024-03-29T14:31:33;4.60;;;1.60;;
26407;SDS011;14583;43.604;1.364;2024-03-29T14:33:59;3.63;;;1.15;;
26407;SDS011;14583;43.604;1.364;2024-03-29T14:36:24;5.40;;;1.30;;
26407;SDS011;14583;43.604;1.364;2024-03-29T14:38:50;3.95;;;1.20;;
26407;SDS011;14583;43.604;1.364;2024-03-29T14:41:17;2.92;;;1.10;;
26407;SDS011;14583;43.604;1.364;2024-03-29T14:43:43;1.90;;;0.90;;
26407;SDS011;14583;43.604;1.364;2024-03-29T14:46:11;1.70;;;1.10;;
26407;SDS011;14583;43.604;1.364;2024-03-29T14:48:37;3.15;;;1.23;;
26407;SDS011;14583;43.604;1.364;2024-03-29T14:51:03;1.73;;;0.98;;
26407;SDS011;14583;43.604;1.364;2024-03-29T14:53:28;1.17;;;1.02;;
26407;SDS011;14583;43.604;1.364;2024-03-29T14:55:54;3.33;;;1.88;;
26407;SDS011;14583;43.604;1.364;2024-03-29T14:58:20;3.25;;;1.38;;
26407;SDS011;14583;43.604;1.364;2024-03-29T15:00:45;3.60;;;1.10;;
26407;SDS011;14583;43.604;1.364;2024-03-29T15:03:13;2.25;;;0.93;;
26407;SDS011;14583;43.604;1.364;2024-03-29T15:05:38;1.77;;;1.08;;